createdAt,value
2022-11-06T00:02:20.956Z,25.47
2022-11-06T00:04:48.773Z,26.83
2022-11-06T00:07:16.279Z,28.17
2022-11-06T00:09:43.710Z,28.27
2022-11-06T00:12:11.098Z,37.57
2022-11-06T00:14:38.474Z,51.77
2022-11-06T00:17:05.907Z,39.87
2022-11-06T00:19:33.270Z,32.83
2022-11-06T00:22:00.724Z,33.50
2022-11-06T00:24:28.450Z,29.83
2022-11-06T00:26:55.809Z,40.33
2022-11-06T00:29:23.384Z,48.10
2022-11-06T00:31:51.113Z,53.67
2022-11-06T00:34:18.520Z,43.67
2022-11-06T00:36:46.006Z,38.37
2022-11-06T00:39:13.490Z,38.90
2022-11-06T00:41:40.863Z,38.67
2022-11-06T00:44:10.644Z,37.10
2022-11-06T00:46:38.344Z,32.53
2022-11-06T00:49:06.017Z,29.70
2022-11-06T00:51:39.598Z,30.90
2022-11-06T00:54:11.183Z,34.23
2022-11-06T00:56:38.871Z,35.13
2022-11-06T00:59:10.314Z,27.87
2022-11-06T01:01:41.895Z,35.43
2022-11-06T01:04:15.798Z,28.57
2022-11-06T01:06:46.750Z,40.83
2022-11-06T01:09:18.519Z,36.03
2022-11-06T01:14:40.342Z,28.67
2022-11-06T01:17:07.908Z,21.47
2022-11-06T01:19:35.433Z,23.07
2022-11-06T01:22:03.065Z,17.77
2022-11-06T01:24:30.608Z,14.63
2022-11-06T01:27:25.513Z,13.90
2022-11-06T01:29:46.018Z,14.73
2022-11-06T01:32:13.456Z,13.70
2022-11-06T01:34:41.024Z,12.40
2022-11-06T01:37:13.233Z,12.50
2022-11-06T01:39:42.320Z,12.27
2022-11-06T01:42:16.200Z,12.00
2022-11-06T01:44:43.568Z,11.93
2022-11-06T01:47:28.753Z,10.80
2022-11-06T01:50:01.682Z,12.77
2022-11-06T01:52:31.367Z,16.83
2022-11-06T01:55:08.879Z,15.40
2022-11-06T01:57:36.463Z,13.70
2022-11-06T02:00:06.691Z,12.17
2022-11-06T02:02:34.691Z,20.17
2022-11-06T02:05:02.478Z,26.80
2022-11-06T02:07:30.214Z,22.33
2022-11-06T02:09:57.590Z,17.50
2022-11-06T02:12:52.280Z,17.27
2022-11-06T02:15:39.668Z,16.73
2022-11-06T02:18:23.851Z,22.13
2022-11-06T02:21:27.486Z,17.53
2022-11-06T02:24:18.981Z,19.57
2022-11-06T02:27:16.184Z,25.27
2022-11-06T02:30:09.584Z,28.00
2022-11-06T02:32:45.715Z,20.83
2022-11-06T02:35:30.461Z,18.97
2022-11-06T02:38:05.833Z,24.50
2022-11-06T02:40:38.258Z,18.93
2022-11-06T02:43:08.582Z,19.77
2022-11-06T02:46:27.020Z,16.87
2022-11-06T02:49:03.830Z,19.03
2022-11-06T02:51:41.251Z,19.70
2022-11-06T02:54:10.874Z,15.00
2022-11-06T02:56:42.506Z,20.80
2022-11-06T02:59:23.422Z,17.67
2022-11-06T03:01:57.746Z,28.00
2022-11-06T03:04:41.978Z,22.53
2022-11-06T03:07:22.680Z,16.07
2022-11-06T03:09:50.906Z,17.83
2022-11-06T03:12:54.903Z,14.73
2022-11-06T03:15:37.375Z,14.60
2022-11-06T03:18:28.641Z,14.60
2022-11-06T03:21:07.618Z,16.47
2022-11-06T03:23:45.298Z,20.50
2022-11-06T03:26:27.747Z,20.47
2022-11-06T03:29:01.023Z,23.67
2022-11-06T03:31:41.071Z,32.33
2022-11-06T03:34:19.707Z,21.10
2022-11-06T03:36:57.343Z,20.37
2022-11-06T03:39:35.648Z,17.97
2022-11-06T03:42:14.001Z,24.27
2022-11-06T03:44:48.734Z,19.20
2022-11-06T03:47:26.750Z,24.47
2022-11-06T03:50:34.595Z,27.17
2022-11-06T03:53:26.818Z,24.23
2022-11-06T03:56:07.756Z,14.93
2022-11-06T03:58:40.696Z,18.50
2022-11-06T04:01:12.378Z,20.03
2022-11-06T04:03:56.970Z,19.10
2022-11-06T04:06:48.848Z,20.47
2022-11-06T04:09:37.010Z,17.03
2022-11-06T04:12:25.189Z,16.13
2022-11-06T04:14:57.164Z,14.17
2022-11-06T04:17:29.289Z,13.47
2022-11-06T04:20:02.206Z,9.73
2022-11-06T04:22:46.111Z,16.23
2022-11-06T04:25:47.979Z,10.83
2022-11-06T04:28:44.027Z,11.93
2022-11-06T04:31:46.483Z,11.33
2022-11-06T04:34:59.696Z,8.87
2022-11-06T04:38:00.906Z,10.27
2022-11-06T04:41:05.461Z,10.87
2022-11-06T04:43:50.487Z,11.23
2022-11-06T04:46:28.197Z,10.07
2022-11-06T04:48:56.427Z,11.13
2022-11-06T04:51:30.376Z,13.10
2022-11-06T04:53:58.429Z,10.63
2022-11-06T04:56:38.000Z,12.93
2022-11-06T04:59:17.751Z,12.00
2022-11-06T05:01:47.367Z,8.90
2022-11-06T05:04:15.063Z,12.83
2022-11-06T05:06:42.591Z,12.10
2022-11-06T05:09:10.195Z,19.07
2022-11-06T05:11:38.619Z,17.70
2022-11-06T05:14:06.244Z,11.10
2022-11-06T05:16:33.721Z,9.60
2022-11-06T05:19:01.150Z,11.70
2022-11-06T05:21:46.778Z,11.93
2022-11-06T05:24:14.314Z,11.60
2022-11-06T05:26:41.863Z,11.60
2022-11-06T05:29:09.532Z,10.70
2022-11-06T05:31:36.949Z,12.03
2022-11-06T05:34:04.522Z,11.70
2022-11-06T05:36:31.952Z,14.53
2022-11-06T05:38:59.434Z,18.70
2022-11-06T05:41:27.254Z,19.00
2022-11-06T05:43:54.677Z,19.77
2022-11-06T05:46:47.152Z,27.63
2022-11-06T05:49:09.947Z,19.43
2022-11-06T05:51:37.436Z,20.27
2022-11-06T05:54:04.982Z,15.23
2022-11-06T05:56:32.428Z,15.53
2022-11-06T05:58:59.882Z,18.70
2022-11-06T06:01:27.448Z,48.90
2022-11-06T06:03:54.924Z,35.70
2022-11-06T06:06:22.472Z,32.87
2022-11-06T06:08:49.884Z,28.33
2022-11-06T06:11:17.334Z,26.43
2022-11-06T06:13:44.798Z,60.37
2022-11-06T06:16:12.233Z,67.47
2022-11-06T06:18:39.721Z,54.03
2022-11-06T06:21:07.171Z,48.87
2022-11-06T06:23:34.647Z,32.47
2022-11-06T06:26:02.075Z,16.70
2022-11-06T06:28:29.527Z,20.20
2022-11-06T06:31:01.290Z,19.43
2022-11-06T06:33:29.491Z,21.03
2022-11-06T06:35:57.112Z,19.70
2022-11-06T06:38:26.104Z,22.23
2022-11-06T06:40:54.350Z,21.93
2022-11-06T06:43:21.794Z,21.03
2022-11-06T06:45:49.601Z,28.57
2022-11-06T06:48:17.131Z,22.30
2022-11-06T06:50:44.570Z,25.80
2022-11-06T06:53:13.507Z,18.17
2022-11-06T06:55:42.155Z,25.93
2022-11-06T06:58:16.624Z,23.33
2022-11-06T07:00:45.695Z,22.50
2022-11-06T07:03:13.345Z,26.10
2022-11-06T07:05:41.022Z,17.23
2022-11-06T07:08:08.402Z,17.73
2022-11-06T07:10:36.350Z,17.30
2022-11-06T07:13:06.914Z,16.73
2022-11-06T07:15:34.393Z,15.40
2022-11-06T07:18:06.479Z,18.20
2022-11-06T07:20:35.366Z,17.33
2022-11-06T07:23:07.928Z,16.10
2022-11-06T07:25:36.332Z,13.33
2022-11-06T07:28:06.383Z,15.73
2022-11-06T07:30:35.801Z,14.77
2022-11-06T07:33:04.920Z,13.57
2022-11-06T07:35:35.605Z,14.50
2022-11-06T07:38:07.459Z,13.80
2022-11-06T07:40:35.884Z,15.83
2022-11-06T07:43:08.246Z,15.43
2022-11-06T07:45:35.830Z,16.03
2022-11-06T07:48:03.867Z,14.87
2022-11-06T07:50:31.825Z,14.70
2022-11-06T07:53:03.321Z,14.27
2022-11-06T07:55:30.838Z,15.67
2022-11-06T07:57:59.728Z,16.77
2022-11-06T08:00:27.511Z,14.40
2022-11-06T08:02:55.041Z,16.10
2022-11-06T08:05:22.547Z,20.93
2022-11-06T08:07:50.013Z,20.70
2022-11-06T08:10:17.911Z,16.43
2022-11-06T08:12:45.308Z,15.53
2022-11-06T08:15:12.781Z,26.77
2022-11-06T08:17:40.233Z,24.30
2022-11-06T08:20:09.138Z,17.40
2022-11-06T08:22:36.581Z,47.30
2022-11-06T08:25:04.528Z,14.20
2022-11-06T08:27:33.229Z,14.33
2022-11-06T08:30:00.685Z,15.93
2022-11-06T08:32:29.047Z,13.70
2022-11-06T08:34:56.760Z,13.03
2022-11-06T08:37:24.143Z,18.00
2022-11-06T08:39:51.529Z,16.50
2022-11-06T08:42:18.996Z,16.17
2022-11-06T08:44:46.432Z,23.67
2022-11-06T08:47:13.811Z,19.20
2022-11-06T08:49:43.651Z,17.53
2022-11-06T08:52:11.087Z,17.83
2022-11-06T08:54:38.537Z,18.27
2022-11-06T08:57:06.007Z,17.23
2022-11-06T08:59:33.481Z,22.30
2022-11-06T09:02:01.522Z,14.37
2022-11-06T09:04:29.060Z,16.00
2022-11-06T09:06:58.540Z,15.40
2022-11-06T09:09:32.158Z,15.00
2022-11-06T09:12:01.544Z,18.07
2022-11-06T09:14:29.062Z,16.07
2022-11-06T09:16:56.500Z,17.77
2022-11-06T09:19:24.547Z,19.43
2022-11-06T09:21:54.899Z,18.47
2022-11-06T09:24:43.326Z,16.43
2022-11-06T09:27:10.115Z,17.13
2022-11-06T09:29:40.969Z,16.90
2022-11-06T09:32:08.405Z,18.07
2022-11-06T09:34:35.870Z,20.50
2022-11-06T09:37:03.686Z,18.60
2022-11-06T09:39:31.105Z,17.80
2022-11-06T09:42:21.615Z,18.80
2022-11-06T09:45:22.941Z,19.07
2022-11-06T09:47:59.247Z,17.80
2022-11-06T09:50:34.558Z,21.67
2022-11-06T09:53:29.118Z,17.77
2022-11-06T09:55:58.584Z,17.60
2022-11-06T09:58:34.516Z,19.47
2022-11-06T10:01:19.551Z,25.33
2022-11-06T10:04:02.941Z,27.87
2022-11-06T10:06:30.709Z,28.77
2022-11-06T10:09:02.772Z,26.20
2022-11-06T10:11:55.506Z,22.53
2022-11-06T10:15:08.897Z,20.50
2022-11-06T10:18:12.790Z,23.57
2022-11-06T10:20:57.780Z,19.67
2022-11-06T10:24:24.194Z,18.17
2022-11-06T10:26:58.543Z,17.63
2022-11-06T10:30:03.939Z,14.90
2022-11-06T10:33:10.213Z,13.40
2022-11-06T10:35:44.403Z,14.93
2022-11-06T10:38:18.045Z,12.77
2022-11-06T10:40:53.881Z,13.03
2022-11-06T10:43:53.858Z,14.00
2022-11-06T10:46:35.604Z,12.97
2022-11-06T10:49:34.964Z,9.47
2022-11-06T10:52:21.067Z,10.27
2022-11-06T10:55:09.527Z,11.47
2022-11-06T10:57:58.153Z,9.90
2022-11-06T11:00:26.994Z,7.83
2022-11-06T11:02:59.271Z,7.43
2022-11-06T11:05:37.680Z,8.40
2022-11-06T11:08:05.491Z,6.50
2022-11-06T11:10:37.447Z,3.83
2022-11-06T11:13:08.692Z,5.67
2022-11-06T11:15:46.869Z,5.07
2022-11-06T11:18:20.518Z,5.43
2022-11-06T11:21:05.470Z,8.50
2022-11-06T11:23:33.297Z,7.07
2022-11-06T11:26:27.799Z,5.37
2022-11-06T11:29:01.682Z,4.47
2022-11-06T11:31:34.840Z,5.80
2022-11-06T11:34:16.592Z,3.10
2022-11-06T11:36:59.406Z,4.97
2022-11-06T11:39:34.243Z,4.13
2022-11-06T11:42:33.092Z,5.00
2022-11-06T11:45:26.937Z,6.20
2022-11-06T11:48:14.312Z,4.70
2022-11-06T11:50:42.092Z,4.53
2022-11-06T11:53:21.085Z,2.77
2022-11-06T11:55:51.014Z,6.00
2022-11-06T11:58:33.236Z,2.60
2022-11-06T12:01:04.205Z,4.87
2022-11-06T12:03:42.105Z,5.60
2022-11-06T12:06:16.916Z,5.37
2022-11-06T12:08:53.294Z,4.10
2022-11-06T12:11:26.735Z,2.10
2022-11-06T12:14:22.072Z,4.07
2022-11-06T12:16:53.772Z,6.20
2022-11-06T12:19:23.813Z,6.17
2022-11-06T12:22:05.767Z,4.60
2022-11-06T12:24:46.602Z,3.20
2022-11-06T12:27:28.188Z,5.43
2022-11-06T12:30:09.782Z,5.13
2022-11-06T12:33:06.331Z,5.43
2022-11-06T12:35:42.710Z,3.33
2022-11-06T12:38:31.135Z,3.30
2022-11-06T12:41:22.618Z,4.40
2022-11-06T12:43:51.760Z,6.10
2022-11-06T12:46:59.515Z,4.20
2022-11-06T12:49:52.063Z,6.63
2022-11-06T12:53:08.106Z,3.70
2022-11-06T12:55:52.011Z,6.13
2022-11-06T12:58:44.429Z,3.87
2022-11-06T13:01:25.628Z,6.13
2022-11-06T13:04:17.998Z,3.47
2022-11-06T13:07:10.029Z,3.27
2022-11-06T13:10:07.612Z,4.60
2022-11-06T13:13:15.772Z,4.43
2022-11-06T13:16:10.184Z,3.33
2022-11-06T13:18:43.224Z,5.10
2022-11-06T13:21:23.846Z,6.87
2022-11-06T13:23:54.981Z,4.53
2022-11-06T13:26:48.567Z,7.27
2022-11-06T13:29:18.407Z,7.40
2022-11-06T13:32:04.609Z,10.20
2022-11-06T13:34:38.649Z,5.37
2022-11-06T13:37:21.719Z,3.53
2022-11-06T13:39:59.745Z,7.67
2022-11-06T13:42:33.389Z,4.97
2022-11-06T13:45:01.829Z,5.00
2022-11-06T13:47:54.188Z,6.17
2022-11-06T13:50:44.362Z,5.57
2022-11-06T13:53:14.722Z,3.17
2022-11-06T13:56:18.418Z,5.87
2022-11-06T13:59:21.099Z,5.33
2022-11-06T14:01:59.210Z,5.87
2022-11-06T14:05:05.718Z,4.53
2022-11-06T14:07:34.603Z,3.97
2022-11-06T14:10:02.387Z,2.70
2022-11-06T14:12:29.947Z,4.57
2022-11-06T14:15:23.730Z,5.53
2022-11-06T14:18:01.680Z,4.90
2022-11-06T14:20:32.779Z,4.23
2022-11-06T14:23:31.023Z,3.80
2022-11-06T14:26:02.416Z,3.60
2022-11-06T14:28:42.593Z,4.80
2022-11-06T14:32:06.710Z,3.73
2022-11-06T14:34:35.454Z,2.53
2022-11-06T14:37:29.871Z,4.30
2022-11-06T14:39:58.385Z,4.87
2022-11-06T14:42:46.287Z,6.20
2022-11-06T14:45:21.064Z,3.63
2022-11-06T14:47:54.472Z,3.27
2022-11-06T14:50:29.085Z,4.07
2022-11-06T14:53:02.675Z,4.57
2022-11-06T14:55:45.366Z,4.67
2022-11-06T14:58:27.191Z,4.47
2022-11-06T15:01:11.227Z,7.20
2022-11-06T15:03:44.529Z,4.97
2022-11-06T15:06:17.706Z,7.03
2022-11-06T15:08:50.868Z,5.23
2022-11-06T15:11:30.161Z,6.37
2022-11-06T15:14:04.634Z,10.33
2022-11-06T15:16:43.649Z,11.20
2022-11-06T15:19:43.074Z,9.50
2022-11-06T15:22:42.104Z,10.00
2022-11-06T15:25:27.594Z,9.87
2022-11-06T15:28:16.184Z,9.00
2022-11-06T15:31:07.743Z,10.20
2022-11-06T15:33:54.457Z,10.43
2022-11-06T15:36:23.797Z,8.87
2022-11-06T15:38:51.340Z,11.77
2022-11-06T15:41:23.827Z,10.20
2022-11-06T15:43:55.214Z,12.43
2022-11-06T15:46:28.716Z,12.97
2022-11-06T15:49:17.956Z,13.90
2022-11-06T15:52:02.841Z,17.87
2022-11-06T15:54:38.422Z,29.67
2022-11-06T15:57:28.281Z,26.60
2022-11-06T16:00:21.115Z,19.87
2022-11-06T16:02:51.656Z,22.37
2022-11-06T16:05:21.971Z,18.40
2022-11-06T16:07:50.817Z,17.47
2022-11-06T16:10:21.176Z,16.07
2022-11-06T16:12:50.283Z,11.67
2022-11-06T16:15:45.476Z,15.80
2022-11-06T16:18:32.882Z,17.07
2022-11-06T16:21:21.914Z,15.77
2022-11-06T16:23:57.317Z,23.07
2022-11-06T16:26:32.281Z,27.80
2022-11-06T16:29:01.598Z,16.70
2022-11-06T16:31:31.473Z,16.70
2022-11-06T16:34:33.268Z,16.93
2022-11-06T16:37:07.574Z,16.67
2022-11-06T16:39:56.182Z,16.20
2022-11-06T16:42:36.119Z,19.07
2022-11-06T16:45:21.433Z,21.60
2022-11-06T16:48:09.123Z,19.20
2022-11-06T16:50:51.703Z,18.13
2022-11-06T16:53:26.205Z,16.67
2022-11-06T16:56:06.183Z,15.87
2022-11-06T16:58:49.317Z,14.77
2022-11-06T17:01:20.874Z,16.07
2022-11-06T17:04:00.245Z,14.47
2022-11-06T17:06:34.444Z,15.33
2022-11-06T17:09:24.242Z,15.17
2022-11-06T17:11:54.003Z,14.83
2022-11-06T17:14:23.006Z,15.07
2022-11-06T17:17:00.314Z,13.43
2022-11-06T17:19:29.299Z,16.43
2022-11-06T17:21:57.552Z,15.57
2022-11-06T17:24:40.589Z,17.63
2022-11-06T17:27:08.075Z,15.50
2022-11-06T17:29:36.708Z,16.67
2022-11-06T17:32:04.641Z,14.57
2022-11-06T17:34:32.109Z,13.07
2022-11-06T17:36:59.578Z,16.60
2022-11-06T17:39:27.111Z,13.87
2022-11-06T17:41:54.701Z,13.67
2022-11-06T17:44:22.615Z,14.23
2022-11-06T17:46:50.309Z,15.23
2022-11-06T17:49:18.781Z,15.20
2022-11-06T17:51:50.892Z,14.93
2022-11-06T17:54:27.406Z,17.50
2022-11-06T17:56:57.023Z,12.63
2022-11-06T17:59:24.982Z,14.07
2022-11-06T18:01:54.212Z,12.90
2022-11-06T18:04:24.662Z,12.00
2022-11-06T18:06:53.227Z,10.77
2022-11-06T18:09:22.462Z,11.83
2022-11-06T18:11:51.375Z,11.70
2022-11-06T18:14:19.459Z,12.93
2022-11-06T18:16:47.113Z,14.77
2022-11-06T18:19:18.545Z,17.40
2022-11-06T18:21:47.111Z,20.67
2022-11-06T18:24:14.814Z,18.50
2022-11-06T18:26:42.565Z,18.70
2022-11-06T18:29:12.115Z,19.60
2022-11-06T18:31:39.998Z,20.03
2022-11-06T18:34:13.972Z,19.50
2022-11-06T18:36:44.293Z,18.40
2022-11-06T18:39:12.229Z,24.50
2022-11-06T18:41:39.826Z,20.03
2022-11-06T18:44:07.266Z,25.80
2022-11-06T18:46:35.001Z,21.57
2022-11-06T18:49:02.497Z,19.97
2022-11-06T18:51:36.062Z,19.73
2022-11-06T18:54:09.181Z,24.03
2022-11-06T18:56:37.462Z,23.07
2022-11-06T18:59:14.627Z,21.37
2022-11-06T19:01:42.157Z,24.93
2022-11-06T19:04:10.975Z,24.77
2022-11-06T19:06:40.344Z,29.47
2022-11-06T19:09:09.669Z,27.17
2022-11-06T19:11:37.342Z,25.70
2022-11-06T19:14:04.803Z,29.33
2022-11-06T19:16:32.300Z,24.20
2022-11-06T19:19:05.845Z,30.17
2022-11-06T19:21:34.694Z,25.47
2022-11-06T19:24:04.542Z,27.63
2022-11-06T19:26:37.499Z,41.67
2022-11-06T19:29:08.345Z,48.10
2022-11-06T19:31:37.830Z,38.47
2022-11-06T19:34:07.593Z,29.20
2022-11-06T19:36:36.131Z,30.13
2022-11-06T19:39:04.771Z,29.27
2022-11-06T19:41:32.158Z,27.67
2022-11-06T19:43:59.975Z,29.23
2022-11-06T19:46:33.844Z,30.47
2022-11-06T19:49:04.701Z,27.67
2022-11-06T19:51:33.661Z,29.53
2022-11-06T19:54:06.408Z,30.33
2022-11-06T19:56:34.147Z,42.67
2022-11-06T19:59:02.396Z,40.23
2022-11-06T20:01:29.999Z,29.60
2022-11-06T20:03:57.514Z,28.97
2022-11-06T20:06:24.907Z,26.93
2022-11-06T20:08:52.312Z,33.30
2022-11-06T20:11:19.834Z,33.03
2022-11-06T20:13:47.680Z,29.57
2022-11-06T20:16:21.380Z,27.77
2022-11-06T20:18:58.186Z,32.97
2022-11-06T20:21:28.275Z,29.63
2022-11-06T20:23:58.630Z,41.50
2022-11-06T20:26:26.141Z,32.77
2022-11-06T20:28:53.569Z,31.57
2022-11-06T20:31:21.938Z,28.60
2022-11-06T20:33:50.404Z,28.00
2022-11-06T20:36:28.327Z,27.03
2022-11-06T20:39:00.152Z,27.03
2022-11-06T20:41:29.119Z,27.90
2022-11-06T20:43:58.363Z,28.63
2022-11-06T20:46:26.249Z,33.27
2022-11-06T20:48:53.757Z,32.30
2022-11-06T20:51:25.519Z,27.60
2022-11-06T20:53:53.726Z,27.60
2022-11-06T20:56:25.503Z,27.43
2022-11-06T20:58:57.277Z,27.90
2022-11-06T21:01:30.259Z,28.93
2022-11-06T21:03:58.517Z,27.73
2022-11-06T21:06:28.006Z,30.60
2022-11-06T21:08:56.325Z,34.00
2022-11-06T21:11:27.357Z,31.10
2022-11-06T21:13:56.393Z,31.63
2022-11-06T21:16:31.647Z,29.53
2022-11-06T21:19:00.851Z,31.57
2022-11-06T21:21:33.321Z,28.57
2022-11-06T21:24:02.471Z,30.83
2022-11-06T21:26:33.551Z,28.83
2022-11-06T21:29:04.516Z,31.47
2022-11-06T21:31:32.696Z,35.57
2022-11-06T21:34:03.072Z,37.97
2022-11-06T21:36:34.920Z,32.73
2022-11-06T21:39:13.390Z,32.07
2022-11-06T21:41:40.859Z,33.70
2022-11-06T21:44:11.926Z,27.27
2022-11-06T21:46:45.008Z,32.20
2022-11-06T21:49:13.765Z,29.23
2022-11-06T21:51:41.691Z,30.80
2022-11-06T21:54:42.545Z,31.53
2022-11-06T21:57:09.944Z,29.90
2022-11-06T21:59:41.439Z,31.67
2022-11-06T22:02:10.115Z,32.73
2022-11-06T22:04:37.721Z,34.47
2022-11-06T22:07:05.139Z,32.70
2022-11-06T22:09:32.571Z,32.63
2022-11-06T22:11:59.992Z,34.77
2022-11-06T22:14:27.633Z,33.00
2022-11-06T22:16:55.384Z,37.23
2022-11-06T22:19:22.825Z,39.47
2022-11-06T22:21:50.203Z,30.77
2022-11-06T22:24:17.614Z,33.87
2022-11-06T22:26:45.020Z,46.73
2022-11-06T22:29:14.327Z,55.17
2022-11-06T22:31:42.088Z,40.20
2022-11-06T22:34:12.357Z,52.13
2022-11-06T22:36:40.831Z,80.43
2022-11-06T22:39:09.597Z,56.73
2022-11-06T22:41:37.981Z,64.00
2022-11-06T22:44:06.900Z,66.60
2022-11-06T22:46:34.963Z,61.13
2022-11-06T22:49:04.349Z,54.90
2022-11-06T22:51:33.750Z,72.83
2022-11-06T22:54:02.417Z,60.93
2022-11-06T22:56:31.294Z,55.83
2022-11-06T22:59:05.115Z,51.30
2022-11-06T23:01:40.193Z,46.83
2022-11-06T23:04:15.360Z,43.40
2022-11-06T23:06:45.471Z,41.60
2022-11-06T23:09:13.932Z,40.53
2022-11-06T23:11:41.467Z,43.47
2022-11-06T23:14:09.640Z,44.00
2022-11-06T23:16:56.177Z,41.47
2022-11-06T23:19:24.796Z,43.17
2022-11-06T23:22:12.347Z,46.40
2022-11-06T23:24:40.004Z,38.93
2022-11-06T23:27:07.497Z,45.80
2022-11-06T23:29:34.894Z,43.83
2022-11-06T23:32:02.263Z,42.13
2022-11-06T23:34:29.690Z,42.30
2022-11-06T23:36:57.153Z,41.40
2022-11-06T23:39:24.580Z,42.67
2022-11-06T23:41:52.020Z,38.77
2022-11-06T23:44:38.081Z,39.50
2022-11-06T23:47:05.541Z,39.77
2022-11-06T23:49:32.933Z,37.93
2022-11-06T23:52:00.437Z,38.60
2022-11-06T23:54:28.059Z,37.43
2022-11-06T23:56:55.593Z,41.33
2022-11-06T23:59:23.310Z,38.03
